Time;durP1;ratioP1;P1;durP2;ratioP2;P2;SDS_P1;SDS_P2;PMS_P1;PMS_P2;Temp;Humidity;BMP_temperature;BMP_pressure;BME280_temperature;BME280_humidity;BME280_pressure;Samples;Min_cycle;Max_cycle;Signal;HPM_P1;HPM_P2
2021/07/09 00:01:13;;;;;;;;;7.75;5.50;;;;;;;;5054246;28;47372;-78
2021/07/09 00:03:41;;;;;;;;;4.25;3.75;;;;;;;;5053802;28;45930;-79
2021/07/09 00:06:06;;;;;;;;;5.50;5.50;;;;;;;;5051654;28;47242;-78
2021/07/09 00:08:32;;;;;;;;;7.00;4.50;;;;;;;;5053693;28;45425;-79
2021/07/09 00:10:57;;;;;;;;;8.00;5.50;;;;;;;;5052897;28;45714;-78
2021/07/09 00:13:22;;;;;;;;;8.33;4.67;;;;;;;;5054667;28;45319;-78
2021/07/09 00:15:48;;;;;;;;;8.00;6.00;;;;;;;;5052076;28;46209;-78
2021/07/09 00:18:13;;;;;;;;;3.00;3.00;;;;;;;;5052576;28;45415;-78
2021/07/09 00:20:41;;;;;;;;;7.50;5.25;;;;;;;;5052793;28;45627;-78
2021/07/09 00:23:07;;;;;;;;;5.50;5.25;;;;;;;;5053190;28;45388;-78
2021/07/09 00:25:32;;;;;;;;;5.50;5.00;;;;;;;;5055063;28;45931;-78
2021/07/09 00:27:57;;;;;;;;;4.00;4.00;;;;;;;;5051846;28;45637;-79
2021/07/09 00:30:23;;;;;;;;;6.00;4.00;;;;;;;;5052916;28;45300;-79
2021/07/09 00:32:48;;;;;;;;;6.00;5.00;;;;;;;;5050850;28;45478;-79
2021/07/09 00:35:13;;;;;;;;;7.00;5.67;;;;;;;;5051873;28;45553;-78
2021/07/09 00:37:39;;;;;;;;;8.25;5.50;;;;;;;;5053263;28;45400;-78
2021/07/09 00:40:07;;;;;;;;;7.00;4.00;;;;;;;;5052441;28;45463;-78
2021/07/09 00:42:32;;;;;;;;;6.00;5.50;;;;;;;;5052606;28;45473;-77
2021/07/09 00:44:58;;;;;;;;;6.00;6.00;;;;;;;;5052287;28;45392;-76
2021/07/09 00:47:23;;;;;;;;;4.00;4.00;;;;;;;;5053161;28;45415;-78
2021/07/09 00:49:49;;;;;;;;;7.00;5.00;;;;;;;;5068474;27;45621;-77
2021/07/09 00:52:14;;;;;;;;;6.00;6.00;;;;;;;;5053176;28;45648;-78
2021/07/09 00:54:40;;;;;;;;;5.00;5.00;;;;;;;;5057073;28;48281;-78
2021/07/09 00:57:07;;;;;;;;;7.00;5.00;;;;;;;;5052337;28;45548;-78
2021/07/09 00:59:32;;;;;;;;;4.00;4.00;;;;;;;;5052682;28;45558;-77
2021/07/09 01:01:59;;;;;;;;;8.50;5.00;;;;;;;;5052291;28;45480;-78
2021/07/09 01:04:24;;;;;;;;;5.25;5.25;;;;;;;;5054370;28;45465;-78
2021/07/09 01:06:49;;;;;;;;;5.00;4.00;;;;;;;;5051913;28;45555;-78
2021/07/09 01:09:15;;;;;;;;;6.50;5.25;;;;;;;;5050297;28;45493;-79
2021/07/09 01:11:40;;;;;;;;;5.67;5.00;;;;;;;;5053658;28;45439;-79
2021/07/09 01:14:08;;;;;;;;;5.00;5.00;;;;;;;;5050893;28;45733;-78
2021/07/09 01:16:34;;;;;;;;;5.50;5.50;;;;;;;;5059991;28;45790;-77
2021/07/09 01:18:59;;;;;;;;;5.75;4.25;;;;;;;;5051726;28;45512;-77
2021/07/09 01:21:25;;;;;;;;;6.00;5.00;;;;;;;;5044929;28;45510;-78
2021/07/09 01:24:00;;;;;;;;;6.25;5.25;;;;;;;;5049351;28;47328;-77
2021/07/09 01:26:27;;;;;;;;;5.25;5.00;;;;;;;;5049765;28;45497;-77
2021/07/09 01:28:52;;;;;;;;;6.25;6.00;;;;;;;;5052171;28;45548;-78
2021/07/09 01:31:17;;;;;;;;;5.25;4.50;;;;;;;;5051777;28;45619;-77
2021/07/09 01:33:43;;;;;;;;;5.00;4.33;;;;;;;;5051378;28;48289;-78
2021/07/09 01:36:08;;;;;;;;;4.33;4.00;;;;;;;;5051506;28;47341;-78
2021/07/09 01:38:34;;;;;;;;;5.33;4.67;;;;;;;;5049791;28;45547;-77
2021/07/09 01:40:59;;;;;;;;;4.75;4.75;;;;;;;;5050241;28;45450;-77
2021/07/09 01:43:24;;;;;;;;;5.33;4.00;;;;;;;;5053331;28;46543;-78
2021/07/09 01:45:50;;;;;;;;;8.50;6.75;;;;;;;;5051743;28;45665;-77
2021/07/09 01:48:15;;;;;;;;;5.75;4.75;;;;;;;;5051207;28;45366;-78
2021/07/09 01:50:41;;;;;;;;;5.25;4.25;;;;;;;;5051687;28;45521;-78
2021/07/09 01:53:06;;;;;;;;;6.00;5.00;;;;;;;;5048092;28;45448;-78
2021/07/09 01:55:31;;;;;;;;;4.67;4.00;;;;;;;;5053283;28;45359;-79
2021/07/09 01:57:56;;;;;;;;;5.00;4.00;;;;;;;;5049146;28;45558;-78
2021/07/09 02:00:24;;;;;;;;;3.75;3.75;;;;;;;;5050729;28;45791;-78
2021/07/09 02:02:50;;;;;;;;;5.50;5.50;;;;;;;;5051596;28;45594;-77
2021/07/09 02:05:16;;;;;;;;;5.75;5.75;;;;;;;;5050693;28;45497;-77
2021/07/09 02:07:44;;;;;;;;;4.75;4.75;;;;;;;;5050530;28;45605;-78
2021/07/09 02:10:11;;;;;;;;;6.25;4.75;;;;;;;;5051559;28;45488;-79
2021/07/09 02:12:36;;;;;;;;;6.00;5.00;;;;;;;;5050393;28;46582;-78
2021/07/09 02:15:09;;;;;;;;;6.00;6.00;;;;;;;;5050730;28;46226;-77
2021/07/09 02:17:34;;;;;;;;;5.25;4.00;;;;;;;;5049355;28;45916;-78
2021/07/09 02:19:59;;;;;;;;;7.75;6.50;;;;;;;;5052407;28;45695;-78
2021/07/09 02:22:25;;;;;;;;;7.00;5.25;;;;;;;;5050908;28;47651;-78
2021/07/09 02:24:51;;;;;;;;;9.00;6.50;;;;;;;;5048890;28;45542;-77
2021/07/09 02:27:16;;;;;;;;;6.00;6.00;;;;;;;;5052100;28;45646;-78
2021/07/09 02:29:42;;;;;;;;;5.00;4.25;;;;;;;;5050925;28;45463;-78
2021/07/09 02:32:09;;;;;;;;;7.75;5.25;;;;;;;;5049297;28;47018;-78
2021/07/09 02:34:35;;;;;;;;;7.75;5.00;;;;;;;;5052883;28;45541;-78
2021/07/09 02:37:00;;;;;;;;;5.00;5.00;;;;;;;;5053101;28;45367;-79
2021/07/09 02:39:26;;;;;;;;;6.00;5.00;;;;;;;;5052480;28;45386;-78
2021/07/09 02:41:55;;;;;;;;;5.75;5.75;;;;;;;;5054654;27;45706;-79
2021/07/09 02:44:24;;;;;;;;;7.00;6.00;;;;;;;;5050011;28;45888;-79
2021/07/09 02:46:50;;;;;;;;;6.75;6.50;;;;;;;;5055537;28;45437;-79
2021/07/09 02:49:15;;;;;;;;;9.25;7.00;;;;;;;;5058491;28;45394;-79
2021/07/09 02:51:41;;;;;;;;;7.75;7.00;;;;;;;;5056156;28;48145;-78
2021/07/09 02:54:06;;;;;;;;;11.25;6.00;;;;;;;;5052649;28;45771;-79
2021/07/09 02:56:31;;;;;;;;;8.00;6.00;;;;;;;;5054567;28;45430;-79
2021/07/09 02:58:58;;;;;;;;;6.00;6.00;;;;;;;;5055168;28;45739;-78
2021/07/09 03:01:23;;;;;;;;;5.75;5.00;;;;;;;;5062850;28;46995;-79
2021/07/09 03:03:49;;;;;;;;;5.75;5.75;;;;;;;;5058700;28;46081;-79
2021/07/09 03:06:14;;;;;;;;;7.00;5.33;;;;;;;;5076646;27;45545;-78
2021/07/09 03:08:39;;;;;;;;;6.00;6.00;;;;;;;;5054241;28;45517;-78
2021/07/09 03:11:04;;;;;;;;;3.00;3.00;;;;;;;;5066066;28;46171;-78
2021/07/09 03:13:30;;;;;;;;;9.00;6.00;;;;;;;;5060832;28;45490;-78
2021/07/09 03:15:55;;;;;;;;;7.00;5.33;;;;;;;;5053837;28;45993;-78
2021/07/09 03:18:20;;;;;;;;;10.25;7.00;;;;;;;;5052635;28;45405;-78
2021/07/09 03:20:45;;;;;;;;;8.00;5.67;;;;;;;;5057475;28;45472;-79
2021/07/09 03:23:11;;;;;;;;;11.00;7.00;;;;;;;;5054524;28;45437;-78
2021/07/09 03:25:36;;;;;;;;;7.50;6.75;;;;;;;;5056948;28;45408;-78
2021/07/09 03:28:01;;;;;;;;;7.00;5.33;;;;;;;;5054763;28;45529;-78
2021/07/09 03:30:26;;;;;;;;;6.00;5.00;;;;;;;;5053086;28;46287;-77
2021/07/09 03:32:52;;;;;;;;;8.00;5.00;;;;;;;;5057960;28;45440;-77
2021/07/09 03:35:17;;;;;;;;;10.00;8.00;;;;;;;;5064724;28;45543;-78
2021/07/09 03:37:42;;;;;;;;;7.25;7.00;;;;;;;;5056683;28;45462;-78
2021/07/09 03:40:09;;;;;;;;;6.67;6.33;;;;;;;;5061657;28;45542;-79
2021/07/09 03:42:34;;;;;;;;;7.50;5.25;;;;;;;;5052343;28;45781;-78
2021/07/09 03:45:00;;;;;;;;;7.50;6.00;;;;;;;;5052343;28;45542;-78
2021/07/09 03:47:25;;;;;;;;;7.75;7.25;;;;;;;;5052849;28;45493;-78
2021/07/09 03:49:50;;;;;;;;;9.75;6.00;;;;;;;;5057075;28;46219;-78
2021/07/09 03:52:16;;;;;;;;;8.00;6.33;;;;;;;;5052986;28;45459;-78
2021/07/09 03:54:41;;;;;;;;;6.00;6.00;;;;;;;;5053194;28;45571;-78
2021/07/09 03:57:06;;;;;;;;;9.00;7.00;;;;;;;;5052947;28;47362;-78
2021/07/09 03:59:32;;;;;;;;;6.25;6.25;;;;;;;;5054920;28;46065;-78
2021/07/09 04:01:57;;;;;;;;;6.75;6.00;;;;;;;;5054839;28;45296;-78
2021/07/09 04:04:23;;;;;;;;;6.75;5.25;;;;;;;;5065003;28;45716;-78
2021/07/09 04:06:48;;;;;;;;;7.67;7.00;;;;;;;;5058942;28;45520;-78
2021/07/09 04:09:13;;;;;;;;;7.00;7.00;;;;;;;;5057310;28;46126;-78
2021/07/09 04:11:38;;;;;;;;;8.33;7.67;;;;;;;;5051555;28;45460;-79
2021/07/09 04:14:04;;;;;;;;;9.25;5.75;;;;;;;;5060162;28;45494;-78
2021/07/09 04:16:29;;;;;;;;;11.00;6.75;;;;;;;;5055060;28;45437;-79
2021/07/09 04:18:54;;;;;;;;;9.33;6.00;;;;;;;;5052910;28;45430;-78
2021/07/09 04:21:19;;;;;;;;;7.67;6.67;;;;;;;;5049744;28;45451;-78
2021/07/09 04:23:45;;;;;;;;;6.33;4.33;;;;;;;;5050525;28;45450;-78
2021/07/09 04:26:10;;;;;;;;;7.50;6.50;;;;;;;;5051708;28;45485;-78
2021/07/09 04:28:35;;;;;;;;;6.67;6.67;;;;;;;;5058924;28;45640;-78
2021/07/09 04:31:00;;;;;;;;;5.25;5.25;;;;;;;;5052976;28;46610;-78
2021/07/09 04:33:26;;;;;;;;;8.67;7.00;;;;;;;;5052464;28;45720;-78
2021/07/09 04:35:51;;;;;;;;;9.67;6.33;;;;;;;;5049669;28;45431;-78
2021/07/09 04:38:17;;;;;;;;;5.75;5.00;;;;;;;;5052469;28;48194;-78
2021/07/09 04:40:42;;;;;;;;;6.00;6.00;;;;;;;;5052782;28;45398;-78
2021/07/09 04:43:07;;;;;;;;;7.67;6.33;;;;;;;;5053638;28;45412;-78
2021/07/09 04:45:32;;;;;;;;;7.33;6.00;;;;;;;;5052994;28;45478;-78
2021/07/09 04:47:57;;;;;;;;;6.33;6.33;;;;;;;;5053150;28;45377;-78
2021/07/09 04:50:23;;;;;;;;;7.00;6.67;;;;;;;;5053924;28;45290;-78
2021/07/09 04:52:48;;;;;;;;;9.33;6.33;;;;;;;;5052627;28;45608;-78
2021/07/09 04:55:15;;;;;;;;;11.25;6.00;;;;;;;;5051004;28;45580;-77
2021/07/09 04:57:40;;;;;;;;;7.00;7.00;;;;;;;;5050479;28;47169;-78
2021/07/09 05:00:06;;;;;;;;;8.00;6.00;;;;;;;;5051069;28;45467;-78
2021/07/09 05:02:31;;;;;;;;;8.50;8.00;;;;;;;;5052253;28;45619;-78
2021/07/09 05:04:56;;;;;;;;;7.67;7.67;;;;;;;;5052544;28;45398;-78
2021/07/09 05:07:22;;;;;;;;;9.00;8.00;;;;;;;;5053816;28;45545;-78
2021/07/09 05:09:47;;;;;;;;;10.67;8.00;;;;;;;;5052866;28;45764;-77
2021/07/09 05:12:12;;;;;;;;;10.00;7.00;;;;;;;;5051814;28;45541;-77
2021/07/09 05:14:38;;;;;;;;;13.50;7.00;;;;;;;;5050441;28;45714;-78
2021/07/09 05:17:03;;;;;;;;;6.67;5.00;;;;;;;;5051059;28;46015;-78
2021/07/09 05:19:28;;;;;;;;;10.50;7.50;;;;;;;;5053961;28;45439;-78
2021/07/09 05:21:53;;;;;;;;;7.00;7.00;;;;;;;;5050801;28;45601;-78
2021/07/09 05:24:19;;;;;;;;;6.33;6.33;;;;;;;;5049661;28;49300;-78
2021/07/09 05:26:47;;;;;;;;;8.25;6.00;;;;;;;;5049544;28;46881;-78
2021/07/09 05:29:12;;;;;;;;;8.00;7.75;;;;;;;;5049039;28;45857;-78
2021/07/09 05:31:37;;;;;;;;;7.00;5.67;;;;;;;;5050579;28;45486;-78
2021/07/09 05:34:03;;;;;;;;;7.50;6.25;;;;;;;;5049317;28;45490;-78
2021/07/09 05:36:28;;;;;;;;;9.00;9.00;;;;;;;;5052219;28;45313;-78
2021/07/09 05:38:54;;;;;;;;;10.75;7.75;;;;;;;;5051107;28;45533;-79
2021/07/09 05:41:20;;;;;;;;;7.75;7.00;;;;;;;;5051045;28;45758;-78
2021/07/09 05:43:45;;;;;;;;;8.00;7.00;;;;;;;;5051566;28;45542;-78
2021/07/09 05:46:11;;;;;;;;;13.00;9.50;;;;;;;;5050917;28;46652;-78
2021/07/09 05:48:36;;;;;;;;;11.00;8.67;;;;;;;;5051759;28;45578;-78
2021/07/09 05:51:01;;;;;;;;;11.25;8.00;;;;;;;;5051631;28;45422;-78
2021/07/09 05:53:27;;;;;;;;;9.00;9.00;;;;;;;;5051911;28;45939;-78
2021/07/09 05:55:52;;;;;;;;;7.00;7.00;;;;;;;;5055877;28;45492;-78
2021/07/09 05:58:18;;;;;;;;;8.00;8.00;;;;;;;;5059052;28;45547;-78
2021/07/09 06:00:43;;;;;;;;;11.50;8.25;;;;;;;;5055925;28;45509;-78
2021/07/09 06:03:09;;;;;;;;;6.25;5.25;;;;;;;;5050320;27;45370;-78
2021/07/09 06:05:34;;;;;;;;;11.00;8.50;;;;;;;;5058468;28;45694;-78
2021/07/09 06:08:06;;;;;;;;;11.33;7.33;;;;;;;;5050020;28;45230;-78
2021/07/09 06:10:31;;;;;;;;;9.00;6.25;;;;;;;;5053378;28;45502;-79
2021/07/09 06:12:58;;;;;;;;;9.00;9.00;;;;;;;;5051633;28;45649;-78
2021/07/09 06:15:23;;;;;;;;;8.75;8.75;;;;;;;;5045023;28;46479;-77
2021/07/09 06:17:48;;;;;;;;;12.50;9.50;;;;;;;;5057769;27;45592;-78
2021/07/09 06:20:14;;;;;;;;;9.00;8.00;;;;;;;;5052006;28;45597;-78
2021/07/09 06:22:40;;;;;;;;;14.00;8.00;;;;;;;;5055888;28;45439;-78
2021/07/09 06:25:05;;;;;;;;;8.00;8.00;;;;;;;;5050157;28;45736;-78
2021/07/09 06:27:31;;;;;;;;;8.50;6.50;;;;;;;;5001385;28;45814;-78
2021/07/09 06:29:56;;;;;;;;;8.75;6.00;;;;;;;;5050540;28;46029;-79
2021/07/09 06:32:21;;;;;;;;;9.67;9.00;;;;;;;;5050137;28;45457;-78
2021/07/09 06:34:46;;;;;;;;;11.33;8.33;;;;;;;;5050039;28;46545;-78
2021/07/09 06:37:12;;;;;;;;;9.00;9.00;;;;;;;;5050250;28;45508;-79
2021/07/09 06:39:37;;;;;;;;;8.67;7.67;;;;;;;;5049050;28;45630;-79
2021/07/09 06:42:02;;;;;;;;;8.00;8.00;;;;;;;;5043544;28;45582;-79
2021/07/09 06:44:27;;;;;;;;;5.25;5.25;;;;;;;;5044417;28;46154;-79
2021/07/09 06:46:53;;;;;;;;;11.00;8.00;;;;;;;;5048780;28;45513;-78
2021/07/09 06:49:18;;;;;;;;;10.00;5.67;;;;;;;;5052650;28;45401;-77
2021/07/09 06:51:43;;;;;;;;;14.00;9.33;;;;;;;;5049202;28;45466;-79
2021/07/09 06:54:08;;;;;;;;;8.25;7.75;;;;;;;;5050400;28;46102;-78
2021/07/09 06:56:33;;;;;;;;;9.33;8.67;;;;;;;;5049501;28;45871;-78
2021/07/09 06:58:59;;;;;;;;;7.33;7.33;;;;;;;;5061943;28;45474;-78
2021/07/09 07:01:24;;;;;;;;;6.00;5.00;;;;;;;;5051711;28;45741;-78
2021/07/09 07:03:49;;;;;;;;;9.00;8.33;;;;;;;;5049040;28;46139;-78
2021/07/09 07:06:15;;;;;;;;;8.00;8.00;;;;;;;;5049393;28;45590;-78
2021/07/09 07:08:40;;;;;;;;;11.50;9.25;;;;;;;;5060047;28;45421;-78
2021/07/09 07:11:05;;;;;;;;;14.25;9.50;;;;;;;;5056274;28;45478;-78
2021/07/09 07:13:30;;;;;;;;;9.00;8.00;;;;;;;;5060241;28;46385;-78
2021/07/09 07:15:56;;;;;;;;;8.00;8.00;;;;;;;;5053942;28;45496;-78
2021/07/09 07:18:21;;;;;;;;;10.00;7.00;;;;;;;;5055288;27;45460;-78
2021/07/09 07:20:47;;;;;;;;;10.00;8.00;;;;;;;;5059758;28;45556;-78
2021/07/09 07:23:15;;;;;;;;;6.00;6.00;;;;;;;;5060426;28;47784;-78
2021/07/09 07:25:41;;;;;;;;;7.50;7.00;;;;;;;;5050219;28;45684;-78
2021/07/09 07:28:06;;;;;;;;;8.25;7.25;;;;;;;;5051586;28;49346;-78
2021/07/09 07:30:32;;;;;;;;;8.25;7.25;;;;;;;;5050949;28;45403;-78
2021/07/09 07:32:57;;;;;;;;;8.00;7.00;;;;;;;;5049122;28;45603;-78
2021/07/09 07:35:23;;;;;;;;;9.25;7.25;;;;;;;;5058033;28;45520;-78
2021/07/09 07:37:48;;;;;;;;;9.00;6.00;;;;;;;;5064040;28;45319;-78
2021/07/09 07:40:14;;;;;;;;;7.00;7.00;;;;;;;;5038530;28;45922;-78
2021/07/09 07:42:40;;;;;;;;;11.50;8.00;;;;;;;;5049805;28;45528;-79
2021/07/09 07:45:05;;;;;;;;;10.00;6.00;;;;;;;;5051644;28;45435;-78
2021/07/09 07:47:31;;;;;;;;;8.50;7.00;;;;;;;;5048902;28;45406;-78
2021/07/09 07:49:56;;;;;;;;;6.75;5.75;;;;;;;;5063997;28;45414;-77
2021/07/09 07:52:21;;;;;;;;;6.00;6.00;;;;;;;;5054785;28;47223;-77
2021/07/09 07:54:47;;;;;;;;;7.67;6.00;;;;;;;;5051799;28;45667;-78
2021/07/09 07:57:12;;;;;;;;;5.50;5.50;;;;;;;;5051705;28;45418;-78
2021/07/09 07:59:37;;;;;;;;;8.00;6.67;;;;;;;;5053835;28;45408;-77
2021/07/09 08:02:02;;;;;;;;;8.00;6.00;;;;;;;;5051652;28;46428;-79
2021/07/09 08:04:27;;;;;;;;;5.00;5.00;;;;;;;;5054242;28;45755;-79
2021/07/09 08:06:53;;;;;;;;;8.33;5.00;;;;;;;;5054102;28;45515;-79
2021/07/09 08:09:18;;;;;;;;;5.00;5.00;;;;;;;;5053104;28;45596;-79
2021/07/09 08:11:43;;;;;;;;;9.67;7.00;;;;;;;;5051957;28;45632;-79
2021/07/09 08:14:08;;;;;;;;;6.00;6.00;;;;;;;;5050695;28;45477;-79
2021/07/09 08:16:34;;;;;;;;;6.25;6.25;;;;;;;;5054238;28;45536;-79
2021/07/09 08:19:00;;;;;;;;;4.00;4.00;;;;;;;;5051133;28;45728;-77
2021/07/09 08:21:26;;;;;;;;;6.00;5.75;;;;;;;;5049398;28;46263;-78
2021/07/09 08:23:51;;;;;;;;;4.25;4.25;;;;;;;;5049830;28;45594;-76
2021/07/09 08:26:16;;;;;;;;;9.00;5.33;;;;;;;;5049020;28;45444;-81
2021/07/09 08:28:41;;;;;;;;;6.33;5.33;;;;;;;;5051882;28;45589;-79
2021/07/09 08:31:06;;;;;;;;;8.00;6.00;;;;;;;;5052886;28;46205;-80
2021/07/09 08:33:32;;;;;;;;;8.00;6.00;;;;;;;;5044896;28;45768;-79
2021/07/09 08:35:57;;;;;;;;;7.50;6.50;;;;;;;;5048286;28;45673;-81
2021/07/09 08:38:22;;;;;;;;;6.25;6.25;;;;;;;;5050286;28;45463;-81
2021/07/09 08:40:48;;;;;;;;;7.00;6.00;;;;;;;;5040625;28;45832;-80
2021/07/09 08:43:13;;;;;;;;;8.33;6.67;;;;;;;;5051953;28;45488;-80
2021/07/09 08:45:38;;;;;;;;;9.00;7.00;;;;;;;;5052658;28;46799;-80
2021/07/09 08:48:04;;;;;;;;;7.75;6.00;;;;;;;;5052591;28;45475;-81
2021/07/09 08:50:29;;;;;;;;;5.25;5.25;;;;;;;;5050128;28;45654;-81
2021/07/09 08:52:55;;;;;;;;;7.00;7.00;;;;;;;;5053023;28;45601;-81
2021/07/09 08:55:20;;;;;;;;;6.00;4.67;;;;;;;;5053931;28;45883;-81
2021/07/09 08:57:46;;;;;;;;;7.25;7.25;;;;;;;;5051564;28;45431;-81
2021/07/09 09:00:21;;;;;;;;;8.00;7.25;;;;;;;;5052370;28;45546;-79
2021/07/09 09:02:46;;;;;;;;;7.25;6.25;;;;;;;;5053209;28;45670;-82
2021/07/09 09:05:19;;;;;;;;;5.75;5.50;;;;;;;;5047163;28;45347;-82
2021/07/09 09:07:47;;;;;;;;;9.25;6.25;;;;;;;;5052678;28;45554;-83
2021/07/09 09:10:12;;;;;;;;;8.50;4.75;;;;;;;;5050403;28;45541;-84
2021/07/09 09:12:38;;;;;;;;;5.00;4.00;;;;;;;;5034755;28;45706;-83
2021/07/09 09:15:04;;;;;;;;;6.00;6.00;;;;;;;;5050759;28;45445;-85
2021/07/09 09:17:30;;;;;;;;;6.50;5.50;;;;;;;;5047628;28;45698;-79
2021/07/09 09:20:05;;;;;;;;;6.50;6.00;;;;;;;;5048692;28;45406;-83
2021/07/09 09:22:32;;;;;;;;;8.75;6.50;;;;;;;;5052136;28;45406;-83
2021/07/09 09:25:00;;;;;;;;;5.25;5.25;;;;;;;;5048235;28;45440;-84
2021/07/09 09:27:25;;;;;;;;;7.75;4.50;;;;;;;;5051102;28;45513;-83
2021/07/09 09:29:50;;;;;;;;;7.00;4.67;;;;;;;;5047587;28;45989;-83
2021/07/09 09:32:16;;;;;;;;;6.67;6.00;;;;;;;;5051325;28;45391;-84
2021/07/09 09:34:45;;;;;;;;;8.00;5.25;;;;;;;;5048561;28;45402;-84
2021/07/09 09:37:12;;;;;;;;;6.50;6.00;;;;;;;;5053019;28;45493;-83
2021/07/09 09:39:45;;;;;;;;;6.50;6.25;;;;;;;;5049495;28;45684;-84
2021/07/09 09:42:24;;;;;;;;;6.75;6.00;;;;;;;;5052080;28;45694;-85
2021/07/09 09:44:50;;;;;;;;;5.75;5.75;;;;;;;;5048207;28;45552;-84
2021/07/09 09:47:20;;;;;;;;;6.67;6.00;;;;;;;;5051162;28;45582;-83
2021/07/09 09:49:50;;;;;;;;;6.25;6.00;;;;;;;;5049354;28;45615;-83
2021/07/09 09:52:31;;;;;;;;;5.75;5.75;;;;;;;;5046781;28;45523;-83
2021/07/09 09:54:56;;;;;;;;;5.00;5.00;;;;;;;;5046426;28;45413;-83
2021/07/09 09:57:21;;;;;;;;;6.33;5.67;;;;;;;;5047867;28;45383;-84
2021/07/09 09:59:50;;;;;;;;;6.33;5.00;;;;;;;;5045375;28;46200;-83
2021/07/09 10:02:15;;;;;;;;;7.75;5.25;;;;;;;;5049543;28;45718;-80
2021/07/09 10:04:40;;;;;;;;;7.00;5.00;;;;;;;;5048147;28;45525;-82
2021/07/09 10:07:06;;;;;;;;;6.00;6.00;;;;;;;;5048612;28;45458;-82
2021/07/09 10:09:31;;;;;;;;;5.00;5.00;;;;;;;;5049681;28;46570;-82
2021/07/09 10:11:58;;;;;;;;;7.00;6.00;;;;;;;;5038634;28;45347;-82
2021/07/09 10:14:26;;;;;;;;;6.75;6.50;;;;;;;;5049663;28;45395;-82
2021/07/09 10:16:57;;;;;;;;;8.75;5.50;;;;;;;;5048706;28;45625;-85
2021/07/09 10:19:27;;;;;;;;;3.00;2.50;;;;;;;;5051236;28;45626;-84
2021/07/09 10:21:52;;;;;;;;;3.00;3.00;;;;;;;;5049507;28;45354;-85
2021/07/09 10:24:18;;;;;;;;;5.00;5.00;;;;;;;;5047383;28;45500;-87
2021/07/09 10:26:45;;;;;;;;;7.50;6.75;;;;;;;;5047333;28;45589;-87
2021/07/09 10:29:16;;;;;;;;;6.00;6.00;;;;;;;;5050499;28;45758;-87
2021/07/09 10:31:43;;;;;;;;;7.25;5.75;;;;;;;;5041076;28;45648;-87
2021/07/09 10:34:28;;;;;;;;;7.25;6.00;;;;;;;;5054463;28;46108;-85
2021/07/09 10:36:58;;;;;;;;;9.25;5.50;;;;;;;;5045151;28;45820;-86
2021/07/09 10:39:50;;;;;;;;;5.00;5.00;;;;;;;;5049689;28;45770;-85
2021/07/09 10:42:15;;;;;;;;;6.25;4.00;;;;;;;;5043955;28;45636;-85
2021/07/09 10:44:54;;;;;;;;;8.00;6.00;;;;;;;;5050467;28;45610;-85
2021/07/09 10:47:20;;;;;;;;;7.50;5.50;;;;;;;;5044958;28;45980;-85
2021/07/09 10:49:51;;;;;;;;;6.00;4.00;;;;;;;;5047822;28;45666;-85
2021/07/09 10:52:38;;;;;;;;;5.00;5.00;;;;;;;;5045705;28;45464;-85
2021/07/09 10:55:23;;;;;;;;;7.00;6.00;;;;;;;;5046974;28;45418;-85
2021/07/09 10:58:06;;;;;;;;;7.00;5.50;;;;;;;;5046889;28;48527;-85
2021/07/09 11:00:54;;;;;;;;;8.00;5.00;;;;;;;;5046318;28;45738;-86
2021/07/09 11:03:24;;;;;;;;;4.50;4.50;;;;;;;;5041612;28;45481;-84
2021/07/09 11:05:49;;;;;;;;;6.25;4.75;;;;;;;;5048036;28;45492;-85
2021/07/09 11:08:32;;;;;;;;;4.33;4.33;;;;;;;;5045847;28;45338;-86
2021/07/09 11:11:00;;;;;;;;;8.50;6.00;;;;;;;;5046200;28;46533;-86
2021/07/09 11:16:22;;;;;;;;;4.50;4.50;;;;;;;;5050762;28;45404;-85
2021/07/09 11:18:53;;;;;;;;;5.75;5.75;;;;;;;;5046291;28;45548;-86
2021/07/09 11:21:31;;;;;;;;;6.00;5.50;;;;;;;;5043347;28;45485;-85
2021/07/09 11:24:13;;;;;;;;;7.25;6.00;;;;;;;;5042983;28;45652;-86
2021/07/09 11:26:42;;;;;;;;;7.00;5.75;;;;;;;;5047904;28;45514;-86
2021/07/09 11:29:16;;;;;;;;;4.00;4.00;;;;;;;;5052442;28;45555;-85
2021/07/09 11:31:42;;;;;;;;;5.25;4.25;;;;;;;;5051615;28;46412;-86
2021/07/09 11:34:11;;;;;;;;;9.00;6.00;;;;;;;;5052895;28;45363;-85
2021/07/09 11:36:44;;;;;;;;;4.25;4.25;;;;;;;;5054003;28;45477;-85
2021/07/09 11:39:13;;;;;;;;;5.00;4.00;;;;;;;;5053262;28;45489;-86
2021/07/09 11:41:47;;;;;;;;;5.00;4.00;;;;;;;;5051541;28;48073;-86
2021/07/09 11:44:13;;;;;;;;;6.25;4.75;;;;;;;;5051677;28;45722;-86
2021/07/09 11:46:38;;;;;;;;;5.00;5.00;;;;;;;;5051993;28;45596;-86
2021/07/09 11:49:03;;;;;;;;;3.33;3.33;;;;;;;;5049903;28;45366;-85
2021/07/09 11:51:30;;;;;;;;;4.00;4.00;;;;;;;;5051678;28;47416;-86
2021/07/09 11:54:05;;;;;;;;;4.00;4.00;;;;;;;;5044863;28;45421;-86
2021/07/09 11:56:40;;;;;;;;;4.00;3.50;;;;;;;;5051504;28;45566;-86
2021/07/09 11:59:12;;;;;;;;;3.00;3.00;;;;;;;;5052799;28;45573;-86
2021/07/09 12:01:38;;;;;;;;;3.75;3.75;;;;;;;;5041011;28;45895;-87
2021/07/09 12:04:03;;;;;;;;;3.67;3.67;;;;;;;;5054108;28;45473;-87
2021/07/09 12:06:28;;;;;;;;;7.00;4.00;;;;;;;;5041672;28;50173;-87
2021/07/09 12:08:57;;;;;;;;;6.00;4.00;;;;;;;;5051496;28;45499;-87
2021/07/09 12:11:22;;;;;;;;;5.00;3.25;;;;;;;;5051763;28;45715;-87
2021/07/09 12:14:14;;;;;;;;;4.33;4.33;;;;;;;;5052744;28;45776;-86
2021/07/09 12:16:39;;;;;;;;;4.50;4.50;;;;;;;;5045777;28;45514;-87
2021/07/09 12:19:04;;;;;;;;;5.00;5.00;;;;;;;;5050857;28;45740;-84
2021/07/09 12:21:29;;;;;;;;;6.33;4.33;;;;;;;;5047811;28;46189;-85
2021/07/09 12:24:02;;;;;;;;;5.75;5.00;;;;;;;;5048330;28;46027;-85
2021/07/09 12:26:29;;;;;;;;;6.25;4.50;;;;;;;;5045160;28;45630;-87
2021/07/09 12:28:54;;;;;;;;;5.50;5.50;;;;;;;;5051949;28;45617;-87
2021/07/09 12:31:19;;;;;;;;;5.25;4.75;;;;;;;;5041947;28;46626;-87
2021/07/09 12:33:50;;;;;;;;;6.00;4.00;;;;;;;;5036962;28;45485;-87
2021/07/09 12:36:15;;;;;;;;;5.00;5.00;;;;;;;;5049434;28;45485;-94
2021/07/09 12:38:43;;;;;;;;;7.67;6.00;;;;;;;;5052311;28;45507;-88
2021/07/09 12:41:12;;;;;;;;;4.75;4.00;;;;;;;;5052915;28;46158;-87
2021/07/09 12:43:45;;;;;;;;;6.75;5.50;;;;;;;;5055437;28;45546;-83
2021/07/09 12:46:15;;;;;;;;;4.00;4.00;;;;;;;;5052862;28;45653;-86
2021/07/09 12:48:45;;;;;;;;;5.50;4.00;;;;;;;;5053267;28;45497;-86
2021/07/09 12:51:14;;;;;;;;;7.00;5.00;;;;;;;;5049639;28;45534;-86
2021/07/09 12:53:48;;;;;;;;;6.25;5.50;;;;;;;;5052489;28;45537;-86
2021/07/09 12:56:16;;;;;;;;;6.25;4.75;;;;;;;;5053366;28;45620;-87
2021/07/09 12:58:41;;;;;;;;;5.25;4.25;;;;;;;;5051079;28;45391;-87
2021/07/09 13:01:08;;;;;;;;;5.00;5.00;;;;;;;;5051409;28;47169;-86
2021/07/09 13:03:34;;;;;;;;;4.50;4.50;;;;;;;;5036866;28;46107;-85
2021/07/09 13:06:04;;;;;;;;;4.50;4.00;;;;;;;;5052779;28;45803;-84
2021/07/09 13:08:30;;;;;;;;;8.00;6.25;;;;;;;;5050938;28;45709;-84
2021/07/09 13:11:09;;;;;;;;;4.75;4.75;;;;;;;;5045006;28;46059;-83
2021/07/09 13:13:36;;;;;;;;;4.25;4.25;;;;;;;;5058457;28;45501;-83
2021/07/09 13:16:06;;;;;;;;;6.75;6.00;;;;;;;;5054349;28;46592;-83
2021/07/09 13:18:31;;;;;;;;;8.50;5.50;;;;;;;;5056148;28;45547;-81
2021/07/09 13:21:07;;;;;;;;;8.50;6.00;;;;;;;;5059298;27;45454;-87
2021/07/09 13:23:32;;;;;;;;;6.75;4.50;;;;;;;;5061299;28;45668;-80
2021/07/09 13:26:01;;;;;;;;;6.50;6.00;;;;;;;;5047771;28;47392;-79
2021/07/09 13:28:35;;;;;;;;;6.75;6.00;;;;;;;;5048873;28;45548;-81
2021/07/09 13:31:00;;;;;;;;;7.50;6.00;;;;;;;;5052655;28;45549;-81
2021/07/09 13:33:25;;;;;;;;;6.00;6.00;;;;;;;;5053258;28;45626;-81
2021/07/09 13:35:54;;;;;;;;;4.67;4.00;;;;;;;;5060466;28;45571;-81
2021/07/09 13:38:20;;;;;;;;;4.25;4.25;;;;;;;;5041114;28;46049;-80
2021/07/09 13:40:45;;;;;;;;;5.00;5.00;;;;;;;;5051792;28;46041;-83
2021/07/09 13:43:10;;;;;;;;;6.33;5.00;;;;;;;;5057404;28;45722;-82
2021/07/09 13:45:37;;;;;;;;;4.50;4.50;;;;;;;;5052504;28;45533;-82
2021/07/09 13:48:02;;;;;;;;;5.50;5.50;;;;;;;;5049568;28;45867;-81
2021/07/09 13:50:30;;;;;;;;;9.75;5.50;;;;;;;;5063570;28;45917;-80
2021/07/09 13:52:56;;;;;;;;;5.75;5.75;;;;;;;;5053342;28;45443;-80
2021/07/09 13:55:21;;;;;;;;;4.00;4.00;;;;;;;;5056166;28;45448;-80
2021/07/09 13:57:46;;;;;;;;;5.00;5.00;;;;;;;;5051274;28;45501;-82
2021/07/09 14:00:12;;;;;;;;;6.67;5.00;;;;;;;;5055291;28;45474;-80
2021/07/09 14:02:37;;;;;;;;;4.00;4.00;;;;;;;;5051760;28;45433;-81
2021/07/09 14:05:03;;;;;;;;;6.75;5.00;;;;;;;;5046976;28;45434;-79
2021/07/09 14:07:28;;;;;;;;;6.75;4.75;;;;;;;;5063507;28;45484;-79
2021/07/09 14:09:54;;;;;;;;;5.00;5.00;;;;;;;;5052787;28;45440;-79
2021/07/09 14:12:19;;;;;;;;;6.00;6.00;;;;;;;;5070489;27;48429;-80
2021/07/09 14:14:44;;;;;;;;;5.67;5.67;;;;;;;;5054870;28;45560;-81
2021/07/09 14:17:09;;;;;;;;;5.67;3.33;;;;;;;;5046512;28;45311;-81
2021/07/09 14:19:35;;;;;;;;;6.00;4.00;;;;;;;;5050207;28;45296;-81
2021/07/09 14:22:00;;;;;;;;;3.75;3.75;;;;;;;;5052139;28;45469;-80
2021/07/09 14:24:26;;;;;;;;;5.50;4.25;;;;;;;;5057370;28;45403;-80
2021/07/09 14:26:51;;;;;;;;;4.00;4.00;;;;;;;;5052221;28;45327;-80
2021/07/09 14:29:17;;;;;;;;;4.67;4.33;;;;;;;;5062850;28;45567;-85
2021/07/09 14:31:43;;;;;;;;;4.75;4.75;;;;;;;;5058795;28;45335;-81
2021/07/09 14:34:08;;;;;;;;;4.25;4.25;;;;;;;;5036516;28;45374;-81
2021/07/09 14:36:33;;;;;;;;;6.33;6.00;;;;;;;;5039896;28;45462;-81
2021/07/09 14:38:58;;;;;;;;;6.50;5.00;;;;;;;;5049091;28;46530;-82
2021/07/09 14:41:24;;;;;;;;;9.00;5.00;;;;;;;;5056608;28;45398;-82
2021/07/09 14:43:49;;;;;;;;;6.00;6.00;;;;;;;;5053075;28;45504;-82